sensor_id;sensor_type;location;lat;lon;timestamp;P1;durP1;ratioP1;P2;durP2;ratioP2
75459;SDS011;64039;53.060;9.342;2023-04-15T00:00:22;12.98;;;8.13;;
75459;SDS011;64039;53.060;9.342;2023-04-15T00:02:48;12.93;;;8.45;;
75459;SDS011;64039;53.060;9.342;2023-04-15T00:05:14;12.07;;;8.10;;
75459;SDS011;64039;53.060;9.342;2023-04-15T00:07:39;13.27;;;8.25;;
75459;SDS011;64039;53.060;9.342;2023-04-15T00:10:05;13.48;;;8.82;;
75459;SDS011;64039;53.060;9.342;2023-04-15T00:12:31;14.95;;;8.90;;
75459;SDS011;64039;53.060;9.342;2023-04-15T00:14:57;14.45;;;8.50;;
75459;SDS011;64039;53.060;9.342;2023-04-15T00:17:23;13.27;;;8.57;;
75459;SDS011;64039;53.060;9.342;2023-04-15T00:19:48;16.15;;;8.38;;
75459;SDS011;64039;53.060;9.342;2023-04-15T00:22:14;13.13;;;8.65;;
75459;SDS011;64039;53.060;9.342;2023-04-15T00:24:39;15.18;;;8.63;;
75459;SDS011;64039;53.060;9.342;2023-04-15T00:27:05;15.45;;;9.48;;
75459;SDS011;64039;53.060;9.342;2023-04-15T00:29:30;15.18;;;9.70;;
75459;SDS011;64039;53.060;9.342;2023-04-15T00:31:56;16.23;;;9.65;;
75459;SDS011;64039;53.060;9.342;2023-04-15T00:34:25;15.77;;;9.15;;
75459;SDS011;64039;53.060;9.342;2023-04-15T00:36:51;15.80;;;9.00;;
75459;SDS011;64039;53.060;9.342;2023-04-15T00:39:17;16.15;;;8.98;;
75459;SDS011;64039;53.060;9.342;2023-04-15T00:41:43;15.27;;;9.20;;
75459;SDS011;64039;53.060;9.342;2023-04-15T00:44:09;13.75;;;9.07;;
75459;SDS011;64039;53.060;9.342;2023-04-15T00:46:35;14.95;;;8.98;;
75459;SDS011;64039;53.060;9.342;2023-04-15T00:49:02;16.25;;;9.57;;
75459;SDS011;64039;53.060;9.342;2023-04-15T00:51:28;16.30;;;9.82;;
75459;SDS011;64039;53.060;9.342;2023-04-15T00:53:55;15.02;;;9.73;;
75459;SDS011;64039;53.060;9.342;2023-04-15T00:56:21;17.13;;;9.90;;
75459;SDS011;64039;53.060;9.342;2023-04-15T00:58:48;16.80;;;10.00;;
75459;SDS011;64039;53.060;9.342;2023-04-15T01:01:15;16.50;;;10.65;;
75459;SDS011;64039;53.060;9.342;2023-04-15T01:03:45;17.00;;;10.18;;
75459;SDS011;64039;53.060;9.342;2023-04-15T01:06:11;16.27;;;9.75;;
75459;SDS011;64039;53.060;9.342;2023-04-15T01:08:38;16.58;;;9.43;;
75459;SDS011;64039;53.060;9.342;2023-04-15T01:11:03;15.88;;;9.50;;
75459;SDS011;64039;53.060;9.342;2023-04-15T01:13:29;16.70;;;9.63;;
75459;SDS011;64039;53.060;9.342;2023-04-15T01:15:57;15.90;;;10.07;;
75459;SDS011;64039;53.060;9.342;2023-04-15T01:18:23;17.45;;;10.25;;
75459;SDS011;64039;53.060;9.342;2023-04-15T01:20:48;18.63;;;10.57;;
75459;SDS011;64039;53.060;9.342;2023-04-15T01:23:14;15.70;;;9.98;;
75459;SDS011;64039;53.060;9.342;2023-04-15T01:25:41;15.20;;;9.35;;
75459;SDS011;64039;53.060;9.342;2023-04-15T01:28:08;18.48;;;10.05;;
75459;SDS011;64039;53.060;9.342;2023-04-15T01:30:35;18.30;;;10.45;;
75459;SDS011;64039;53.060;9.342;2023-04-15T01:33:00;16.90;;;9.77;;
75459;SDS011;64039;53.060;9.342;2023-04-15T01:35:26;17.33;;;10.48;;
75459;SDS011;64039;53.060;9.342;2023-04-15T01:37:52;15.93;;;9.43;;
75459;SDS011;64039;53.060;9.342;2023-04-15T01:40:18;16.48;;;9.38;;
75459;SDS011;64039;53.060;9.342;2023-04-15T01:42:44;15.30;;;9.20;;
75459;SDS011;64039;53.060;9.342;2023-04-15T01:45:10;15.57;;;9.93;;
75459;SDS011;64039;53.060;9.342;2023-04-15T01:47:37;16.58;;;9.05;;
75459;SDS011;64039;53.060;9.342;2023-04-15T01:50:02;16.65;;;9.38;;
75459;SDS011;64039;53.060;9.342;2023-04-15T01:52:28;16.13;;;9.45;;
75459;SDS011;64039;53.060;9.342;2023-04-15T01:54:54;18.58;;;9.80;;
75459;SDS011;64039;53.060;9.342;2023-04-15T01:57:19;17.60;;;9.55;;
75459;SDS011;64039;53.060;9.342;2023-04-15T01:59:45;14.75;;;9.30;;
75459;SDS011;64039;53.060;9.342;2023-04-15T02:02:11;15.73;;;10.27;;
75459;SDS011;64039;53.060;9.342;2023-04-15T02:04:36;16.17;;;10.43;;
75459;SDS011;64039;53.060;9.342;2023-04-15T02:07:02;17.83;;;9.45;;
75459;SDS011;64039;53.060;9.342;2023-04-15T02:09:27;17.77;;;10.55;;
75459;SDS011;64039;53.060;9.342;2023-04-15T02:11:53;17.40;;;9.93;;
75459;SDS011;64039;53.060;9.342;2023-04-15T02:14:18;17.67;;;10.23;;
75459;SDS011;64039;53.060;9.342;2023-04-15T02:16:44;18.85;;;10.15;;
75459;SDS011;64039;53.060;9.342;2023-04-15T02:19:09;19.42;;;11.20;;
75459;SDS011;64039;53.060;9.342;2023-04-15T02:21:35;15.77;;;10.27;;
75459;SDS011;64039;53.060;9.342;2023-04-15T02:24:00;18.48;;;10.70;;
75459;SDS011;64039;53.060;9.342;2023-04-15T02:26:26;17.98;;;9.73;;
75459;SDS011;64039;53.060;9.342;2023-04-15T02:28:52;19.23;;;10.45;;
75459;SDS011;64039;53.060;9.342;2023-04-15T02:31:17;18.83;;;10.88;;
75459;SDS011;64039;53.060;9.342;2023-04-15T02:33:43;18.75;;;10.90;;
75459;SDS011;64039;53.060;9.342;2023-04-15T02:36:08;19.67;;;10.70;;
75459;SDS011;64039;53.060;9.342;2023-04-15T02:38:36;16.05;;;10.50;;
75459;SDS011;64039;53.060;9.342;2023-04-15T02:41:02;16.90;;;9.80;;
75459;SDS011;64039;53.060;9.342;2023-04-15T02:43:28;18.90;;;11.18;;
75459;SDS011;64039;53.060;9.342;2023-04-15T02:45:54;20.05;;;11.25;;
75459;SDS011;64039;53.060;9.342;2023-04-15T02:48:20;18.05;;;10.63;;
75459;SDS011;64039;53.060;9.342;2023-04-15T02:50:46;17.00;;;10.25;;
75459;SDS011;64039;53.060;9.342;2023-04-15T02:53:12;16.60;;;10.15;;
75459;SDS011;64039;53.060;9.342;2023-04-15T02:55:38;16.73;;;10.00;;
75459;SDS011;64039;53.060;9.342;2023-04-15T02:58:05;22.60;;;11.18;;
75459;SDS011;64039;53.060;9.342;2023-04-15T03:00:31;18.52;;;11.07;;
75459;SDS011;64039;53.060;9.342;2023-04-15T03:02:58;21.75;;;12.18;;
75459;SDS011;64039;53.060;9.342;2023-04-15T03:05:30;19.38;;;11.13;;
75459;SDS011;64039;53.060;9.342;2023-04-15T03:07:55;22.02;;;11.55;;
75459;SDS011;64039;53.060;9.342;2023-04-15T03:10:21;18.38;;;11.27;;
75459;SDS011;64039;53.060;9.342;2023-04-15T03:12:47;20.67;;;11.68;;
75459;SDS011;64039;53.060;9.342;2023-04-15T03:15:13;20.40;;;11.43;;
75459;SDS011;64039;53.060;9.342;2023-04-15T03:17:38;20.30;;;11.20;;
75459;SDS011;64039;53.060;9.342;2023-04-15T03:20:04;19.65;;;11.20;;
75459;SDS011;64039;53.060;9.342;2023-04-15T03:22:31;22.80;;;12.02;;
75459;SDS011;64039;53.060;9.342;2023-04-15T03:24:56;19.42;;;11.52;;
75459;SDS011;64039;53.060;9.342;2023-04-15T03:27:22;18.08;;;10.93;;
75459;SDS011;64039;53.060;9.342;2023-04-15T03:29:48;19.77;;;11.95;;
75459;SDS011;64039;53.060;9.342;2023-04-15T03:32:13;17.75;;;10.30;;
75459;SDS011;64039;53.060;9.342;2023-04-15T03:34:40;18.73;;;10.68;;
75459;SDS011;64039;53.060;9.342;2023-04-15T03:37:06;17.25;;;10.20;;
75459;SDS011;64039;53.060;9.342;2023-04-15T03:39:31;17.10;;;10.10;;
75459;SDS011;64039;53.060;9.342;2023-04-15T03:41:57;18.15;;;10.55;;
75459;SDS011;64039;53.060;9.342;2023-04-15T03:44:23;18.33;;;10.35;;
75459;SDS011;64039;53.060;9.342;2023-04-15T03:46:50;17.92;;;9.70;;
75459;SDS011;64039;53.060;9.342;2023-04-15T03:49:15;14.90;;;9.20;;
75459;SDS011;64039;53.060;9.342;2023-04-15T03:51:41;18.70;;;10.02;;
75459;SDS011;64039;53.060;9.342;2023-04-15T03:54:06;16.23;;;9.63;;
75459;SDS011;64039;53.060;9.342;2023-04-15T03:56:32;13.98;;;8.98;;
75459;SDS011;64039;53.060;9.342;2023-04-15T03:58:57;17.50;;;10.00;;
75459;SDS011;64039;53.060;9.342;2023-04-15T04:01:23;16.27;;;9.40;;
75459;SDS011;64039;53.060;9.342;2023-04-15T04:03:48;15.63;;;9.38;;
75459;SDS011;64039;53.060;9.342;2023-04-15T04:06:14;13.82;;;9.60;;
75459;SDS011;64039;53.060;9.342;2023-04-15T04:08:39;15.38;;;8.98;;
75459;SDS011;64039;53.060;9.342;2023-04-15T04:11:05;15.20;;;9.20;;
75459;SDS011;64039;53.060;9.342;2023-04-15T04:13:30;16.27;;;9.13;;
75459;SDS011;64039;53.060;9.342;2023-04-15T04:15:56;15.77;;;9.55;;
75459;SDS011;64039;53.060;9.342;2023-04-15T04:18:21;16.73;;;10.25;;
75459;SDS011;64039;53.060;9.342;2023-04-15T04:20:47;17.33;;;10.30;;
75459;SDS011;64039;53.060;9.342;2023-04-15T04:23:12;16.00;;;9.40;;
75459;SDS011;64039;53.060;9.342;2023-04-15T04:25:38;17.45;;;10.45;;
75459;SDS011;64039;53.060;9.342;2023-04-15T04:28:03;18.15;;;9.95;;
75459;SDS011;64039;53.060;9.342;2023-04-15T04:30:29;16.50;;;9.95;;
75459;SDS011;64039;53.060;9.342;2023-04-15T04:32:54;17.98;;;9.65;;
75459;SDS011;64039;53.060;9.342;2023-04-15T04:35:20;16.23;;;10.45;;
75459;SDS011;64039;53.060;9.342;2023-04-15T04:37:46;17.15;;;10.20;;
75459;SDS011;64039;53.060;9.342;2023-04-15T04:40:11;17.52;;;10.63;;
75459;SDS011;64039;53.060;9.342;2023-04-15T04:42:37;17.08;;;10.20;;
75459;SDS011;64039;53.060;9.342;2023-04-15T04:45:03;16.92;;;10.70;;
75459;SDS011;64039;53.060;9.342;2023-04-15T04:47:29;16.05;;;10.32;;
75459;SDS011;64039;53.060;9.342;2023-04-15T04:49:54;15.32;;;9.48;;
75459;SDS011;64039;53.060;9.342;2023-04-15T04:52:20;18.00;;;10.80;;
75459;SDS011;64039;53.060;9.342;2023-04-15T04:54:45;16.52;;;10.30;;
75459;SDS011;64039;53.060;9.342;2023-04-15T04:57:11;18.65;;;10.55;;
75459;SDS011;64039;53.060;9.342;2023-04-15T04:59:37;18.13;;;10.98;;
75459;SDS011;64039;53.060;9.342;2023-04-15T05:02:03;17.08;;;11.32;;
75459;SDS011;64039;53.060;9.342;2023-04-15T05:04:29;16.83;;;11.30;;
75459;SDS011;64039;53.060;9.342;2023-04-15T05:06:56;15.65;;;10.68;;
75459;SDS011;64039;53.060;9.342;2023-04-15T05:09:21;16.58;;;9.77;;
75459;SDS011;64039;53.060;9.342;2023-04-15T05:11:47;15.70;;;10.60;;
75459;SDS011;64039;53.060;9.342;2023-04-15T05:14:12;16.30;;;10.25;;
75459;SDS011;64039;53.060;9.342;2023-04-15T05:16:38;15.38;;;10.48;;
75459;SDS011;64039;53.060;9.342;2023-04-15T05:19:03;18.05;;;10.90;;
75459;SDS011;64039;53.060;9.342;2023-04-15T05:21:29;16.20;;;9.93;;
75459;SDS011;64039;53.060;9.342;2023-04-15T05:23:55;15.93;;;9.88;;
75459;SDS011;64039;53.060;9.342;2023-04-15T05:26:20;18.20;;;9.77;;
75459;SDS011;64039;53.060;9.342;2023-04-15T05:28:46;16.02;;;10.60;;
75459;SDS011;64039;53.060;9.342;2023-04-15T05:31:12;18.60;;;11.00;;
75459;SDS011;64039;53.060;9.342;2023-04-15T05:33:37;16.92;;;10.13;;
75459;SDS011;64039;53.060;9.342;2023-04-15T05:36:03;16.67;;;10.10;;
75459;SDS011;64039;53.060;9.342;2023-04-15T05:38:28;16.95;;;10.38;;
75459;SDS011;64039;53.060;9.342;2023-04-15T05:40:53;15.65;;;10.10;;
75459;SDS011;64039;53.060;9.342;2023-04-15T05:43:19;14.77;;;9.43;;
75459;SDS011;64039;53.060;9.342;2023-04-15T05:45:44;15.88;;;10.35;;
75459;SDS011;64039;53.060;9.342;2023-04-15T05:48:10;13.70;;;9.05;;
75459;SDS011;64039;53.060;9.342;2023-04-15T05:50:36;13.88;;;9.23;;
75459;SDS011;64039;53.060;9.342;2023-04-15T05:53:01;15.20;;;9.63;;
75459;SDS011;64039;53.060;9.342;2023-04-15T05:55:27;13.05;;;8.50;;
75459;SDS011;64039;53.060;9.342;2023-04-15T05:57:52;15.38;;;8.77;;
75459;SDS011;64039;53.060;9.342;2023-04-15T06:00:17;14.52;;;8.52;;
75459;SDS011;64039;53.060;9.342;2023-04-15T06:02:44;12.88;;;8.13;;
75459;SDS011;64039;53.060;9.342;2023-04-15T06:05:09;14.13;;;9.20;;
75459;SDS011;64039;53.060;9.342;2023-04-15T06:07:36;15.48;;;9.18;;
75459;SDS011;64039;53.060;9.342;2023-04-15T06:10:02;13.25;;;8.63;;
75459;SDS011;64039;53.060;9.342;2023-04-15T06:12:28;13.93;;;8.20;;
75459;SDS011;64039;53.060;9.342;2023-04-15T06:14:54;12.18;;;8.27;;
75459;SDS011;64039;53.060;9.342;2023-04-15T06:17:19;13.27;;;8.57;;
75459;SDS011;64039;53.060;9.342;2023-04-15T06:19:45;13.75;;;8.07;;
75459;SDS011;64039;53.060;9.342;2023-04-15T06:22:10;13.25;;;8.25;;
75459;SDS011;64039;53.060;9.342;2023-04-15T06:24:36;12.23;;;8.25;;
75459;SDS011;64039;53.060;9.342;2023-04-15T06:27:01;12.82;;;7.65;;
75459;SDS011;64039;53.060;9.342;2023-04-15T06:29:27;11.65;;;7.38;;
75459;SDS011;64039;53.060;9.342;2023-04-15T06:31:53;12.18;;;7.55;;
75459;SDS011;64039;53.060;9.342;2023-04-15T06:34:18;11.52;;;7.03;;
75459;SDS011;64039;53.060;9.342;2023-04-15T06:36:44;10.40;;;7.10;;
75459;SDS011;64039;53.060;9.342;2023-04-15T06:39:09;11.60;;;7.00;;
75459;SDS011;64039;53.060;9.342;2023-04-15T06:41:35;10.77;;;6.70;;
75459;SDS011;64039;53.060;9.342;2023-04-15T06:44:00;9.23;;;6.38;;
75459;SDS011;64039;53.060;9.342;2023-04-15T06:46:26;10.43;;;6.65;;
75459;SDS011;64039;53.060;9.342;2023-04-15T06:48:52;12.65;;;7.18;;
75459;SDS011;64039;53.060;9.342;2023-04-15T06:51:17;10.32;;;6.43;;
75459;SDS011;64039;53.060;9.342;2023-04-15T06:53:43;9.77;;;5.90;;
75459;SDS011;64039;53.060;9.342;2023-04-15T06:56:09;9.60;;;6.22;;
75459;SDS011;64039;53.060;9.342;2023-04-15T06:58:35;9.45;;;5.95;;
75459;SDS011;64039;53.060;9.342;2023-04-15T07:01:00;9.25;;;6.18;;
75459;SDS011;64039;53.060;9.342;2023-04-15T07:03:26;7.53;;;4.85;;
75459;SDS011;64039;53.060;9.342;2023-04-15T07:05:51;8.80;;;5.72;;
75459;SDS011;64039;53.060;9.342;2023-04-15T07:08:18;9.55;;;6.22;;
75459;SDS011;64039;53.060;9.342;2023-04-15T07:10:43;10.27;;;5.57;;
75459;SDS011;64039;53.060;9.342;2023-04-15T07:13:10;9.65;;;6.13;;
75459;SDS011;64039;53.060;9.342;2023-04-15T07:15:36;8.63;;;5.72;;
75459;SDS011;64039;53.060;9.342;2023-04-15T07:18:01;8.95;;;5.80;;
75459;SDS011;64039;53.060;9.342;2023-04-15T07:20:26;8.13;;;5.32;;
75459;SDS011;64039;53.060;9.342;2023-04-15T07:22:52;7.53;;;4.88;;
75459;SDS011;64039;53.060;9.342;2023-04-15T07:25:17;8.55;;;5.47;;
75459;SDS011;64039;53.060;9.342;2023-04-15T07:27:43;10.07;;;6.03;;
75459;SDS011;64039;53.060;9.342;2023-04-15T07:30:09;8.77;;;5.47;;
75459;SDS011;64039;53.060;9.342;2023-04-15T07:32:34;9.00;;;5.90;;
75459;SDS011;64039;53.060;9.342;2023-04-15T07:35:00;8.02;;;5.30;;
75459;SDS011;64039;53.060;9.342;2023-04-15T07:37:27;7.40;;;4.93;;
75459;SDS011;64039;53.060;9.342;2023-04-15T07:39:53;7.88;;;4.95;;
75459;SDS011;64039;53.060;9.342;2023-04-15T07:42:19;8.00;;;5.47;;
75459;SDS011;64039;53.060;9.342;2023-04-15T07:44:46;7.78;;;5.18;;
75459;SDS011;64039;53.060;9.342;2023-04-15T07:47:11;9.05;;;5.72;;
75459;SDS011;64039;53.060;9.342;2023-04-15T07:49:37;7.07;;;4.97;;
75459;SDS011;64039;53.060;9.342;2023-04-15T07:52:02;8.55;;;5.70;;
75459;SDS011;64039;53.060;9.342;2023-04-15T07:54:28;9.77;;;6.50;;
75459;SDS011;64039;53.060;9.342;2023-04-15T07:56:53;8.90;;;5.80;;
75459;SDS011;64039;53.060;9.342;2023-04-15T07:59:20;8.75;;;5.72;;
75459;SDS011;64039;53.060;9.342;2023-04-15T08:01:45;9.88;;;6.68;;
75459;SDS011;64039;53.060;9.342;2023-04-15T08:04:13;10.00;;;6.60;;
75459;SDS011;64039;53.060;9.342;2023-04-15T08:06:38;9.93;;;6.50;;
75459;SDS011;64039;53.060;9.342;2023-04-15T08:09:04;11.10;;;6.70;;
75459;SDS011;64039;53.060;9.342;2023-04-15T08:11:31;11.15;;;6.65;;
75459;SDS011;64039;53.060;9.342;2023-04-15T08:13:56;9.57;;;6.88;;
75459;SDS011;64039;53.060;9.342;2023-04-15T08:16:23;11.15;;;7.60;;
75459;SDS011;64039;53.060;9.342;2023-04-15T08:18:51;11.00;;;6.55;;
75459;SDS011;64039;53.060;9.342;2023-04-15T08:21:18;11.52;;;7.47;;
75459;SDS011;64039;53.060;9.342;2023-04-15T08:23:44;11.68;;;7.72;;
75459;SDS011;64039;53.060;9.342;2023-04-15T08:26:11;12.30;;;8.13;;
75459;SDS011;64039;53.060;9.342;2023-04-15T08:28:37;11.45;;;7.85;;
75459;SDS011;64039;53.060;9.342;2023-04-15T08:31:05;12.55;;;7.70;;
75459;SDS011;64039;53.060;9.342;2023-04-15T08:33:30;11.48;;;7.90;;
75459;SDS011;64039;53.060;9.342;2023-04-15T08:35:56;13.90;;;7.88;;
75459;SDS011;64039;53.060;9.342;2023-04-15T08:38:22;12.82;;;8.45;;
75459;SDS011;64039;53.060;9.342;2023-04-15T08:40:48;13.90;;;8.40;;
75459;SDS011;64039;53.060;9.342;2023-04-15T08:43:20;14.00;;;8.65;;
75459;SDS011;64039;53.060;9.342;2023-04-15T08:45:52;12.02;;;8.43;;
75459;SDS011;64039;53.060;9.342;2023-04-15T08:48:17;11.90;;;7.88;;
75459;SDS011;64039;53.060;9.342;2023-04-15T08:50:44;12.57;;;8.48;;
75459;SDS011;64039;53.060;9.342;2023-04-15T08:53:11;13.70;;;8.75;;
75459;SDS011;64039;53.060;9.342;2023-04-15T08:55:39;14.98;;;8.57;;
75459;SDS011;64039;53.060;9.342;2023-04-15T08:58:10;15.57;;;9.73;;
75459;SDS011;64039;53.060;9.342;2023-04-15T09:00:37;14.18;;;8.90;;
75459;SDS011;64039;53.060;9.342;2023-04-15T09:03:04;13.93;;;9.02;;
75459;SDS011;64039;53.060;9.342;2023-04-15T09:05:31;15.75;;;9.38;;
75459;SDS011;64039;53.060;9.342;2023-04-15T09:07:58;22.75;;;12.75;;
75459;SDS011;64039;53.060;9.342;2023-04-15T09:10:23;16.83;;;10.43;;
75459;SDS011;64039;53.060;9.342;2023-04-15T09:12:49;17.17;;;10.40;;
75459;SDS011;64039;53.060;9.342;2023-04-15T09:15:14;17.55;;;10.23;;
75459;SDS011;64039;53.060;9.342;2023-04-15T09:17:43;19.45;;;11.60;;
75459;SDS011;64039;53.060;9.342;2023-04-15T09:20:10;22.52;;;11.93;;
75459;SDS011;64039;53.060;9.342;2023-04-15T09:22:38;19.27;;;11.60;;
75459;SDS011;64039;53.060;9.342;2023-04-15T09:27:47;22.83;;;12.32;;
75459;SDS011;64039;53.060;9.342;2023-04-15T09:30:16;22.35;;;12.43;;
75459;SDS011;64039;53.060;9.342;2023-04-15T09:32:56;22.15;;;13.10;;
75459;SDS011;64039;53.060;9.342;2023-04-15T09:35:24;22.67;;;12.75;;
75459;SDS011;64039;53.060;9.342;2023-04-15T09:37:50;24.48;;;13.68;;
75459;SDS011;64039;53.060;9.342;2023-04-15T09:40:35;25.42;;;13.57;;
75459;SDS011;64039;53.060;9.342;2023-04-15T09:43:03;25.80;;;14.70;;
75459;SDS011;64039;53.060;9.342;2023-04-15T09:45:30;22.83;;;13.30;;
75459;SDS011;64039;53.060;9.342;2023-04-15T09:47:57;23.83;;;13.55;;
75459;SDS011;64039;53.060;9.342;2023-04-15T09:50:43;26.73;;;15.13;;
75459;SDS011;64039;53.060;9.342;2023-04-15T09:53:10;26.50;;;14.82;;
75459;SDS011;64039;53.060;9.342;2023-04-15T09:55:42;29.40;;;15.73;;
75459;SDS011;64039;53.060;9.342;2023-04-15T09:58:16;27.75;;;15.23;;
75459;SDS011;64039;53.060;9.342;2023-04-15T10:00:46;29.10;;;14.95;;
75459;SDS011;64039;53.060;9.342;2023-04-15T10:03:15;28.23;;;15.40;;
75459;SDS011;64039;53.060;9.342;2023-04-15T10:05:44;28.10;;;14.87;;
75459;SDS011;64039;53.060;9.342;2023-04-15T10:08:12;26.73;;;15.07;;
75459;SDS011;64039;53.060;9.342;2023-04-15T10:10:39;27.85;;;15.88;;
75459;SDS011;64039;53.060;9.342;2023-04-15T10:13:05;25.50;;;14.45;;
75459;SDS011;64039;53.060;9.342;2023-04-15T10:15:31;28.95;;;15.07;;
75459;SDS011;64039;53.060;9.342;2023-04-15T10:17:57;28.80;;;15.00;;
75459;SDS011;64039;53.060;9.342;2023-04-15T10:20:25;28.85;;;14.73;;
75459;SDS011;64039;53.060;9.342;2023-04-15T10:22:53;27.55;;;14.27;;
75459;SDS011;64039;53.060;9.342;2023-04-15T10:25:19;27.70;;;14.95;;
75459;SDS011;64039;53.060;9.342;2023-04-15T10:27:45;29.92;;;15.93;;
75459;SDS011;64039;53.060;9.342;2023-04-15T10:30:12;28.08;;;15.07;;
75459;SDS011;64039;53.060;9.342;2023-04-15T10:32:38;29.42;;;16.35;;
75459;SDS011;64039;53.060;9.342;2023-04-15T10:35:05;33.70;;;17.10;;
75459;SDS011;64039;53.060;9.342;2023-04-15T10:37:34;31.50;;;17.52;;
75459;SDS011;64039;53.060;9.342;2023-04-15T10:40:17;32.45;;;17.40;;
75459;SDS011;64039;53.060;9.342;2023-04-15T10:43:00;29.23;;;16.67;;
75459;SDS011;64039;53.060;9.342;2023-04-15T10:45:27;31.92;;;16.73;;
75459;SDS011;64039;53.060;9.342;2023-04-15T10:47:57;31.70;;;16.42;;
75459;SDS011;64039;53.060;9.342;2023-04-15T10:50:25;37.38;;;19.15;;
75459;SDS011;64039;53.060;9.342;2023-04-15T10:52:54;36.55;;;19.35;;
75459;SDS011;64039;53.060;9.342;2023-04-15T10:55:21;37.67;;;19.27;;
75459;SDS011;64039;53.060;9.342;2023-04-15T10:57:56;38.65;;;19.77;;
75459;SDS011;64039;53.060;9.342;2023-04-15T11:00:24;40.47;;;20.80;;
75459;SDS011;64039;53.060;9.342;2023-04-15T11:02:52;48.95;;;23.67;;
75459;SDS011;64039;53.060;9.342;2023-04-15T11:05:18;41.03;;;21.33;;
75459;SDS011;64039;53.060;9.342;2023-04-15T11:12:45;40.40;;;20.17;;
75459;SDS011;64039;53.060;9.342;2023-04-15T11:17:49;47.97;;;22.55;;
75459;SDS011;64039;53.060;9.342;2023-04-15T11:20:15;44.42;;;23.63;;
75459;SDS011;64039;53.060;9.342;2023-04-15T11:22:49;47.20;;;24.65;;
75459;SDS011;64039;53.060;9.342;2023-04-15T11:25:26;45.40;;;24.17;;
75459;SDS011;64039;53.060;9.342;2023-04-15T11:27:53;46.47;;;24.15;;
75459;SDS011;64039;53.060;9.342;2023-04-15T11:30:20;53.35;;;25.58;;
75459;SDS011;64039;53.060;9.342;2023-04-15T11:32:46;53.58;;;24.98;;
75459;SDS011;64039;53.060;9.342;2023-04-15T11:35:12;48.08;;;25.30;;
75459;SDS011;64039;53.060;9.342;2023-04-15T11:37:38;53.85;;;26.48;;
75459;SDS011;64039;53.060;9.342;2023-04-15T11:40:03;82.18;;;44.10;;
75459;SDS011;64039;53.060;9.342;2023-04-15T11:42:31;93.55;;;47.85;;
75459;SDS011;64039;53.060;9.342;2023-04-15T11:45:09;78.22;;;42.85;;
75459;SDS011;64039;53.060;9.342;2023-04-15T11:47:39;68.82;;;36.08;;
75459;SDS011;64039;53.060;9.342;2023-04-15T11:50:16;54.63;;;27.45;;
75459;SDS011;64039;53.060;9.342;2023-04-15T11:52:54;56.05;;;29.40;;
75459;SDS011;64039;53.060;9.342;2023-04-15T11:55:27;53.97;;;26.77;;
75459;SDS011;64039;53.060;9.342;2023-04-15T12:03:18;55.03;;;27.33;;
75459;SDS011;64039;53.060;9.342;2023-04-15T12:11:16;108.45;;;56.63;;
75459;SDS011;64039;53.060;9.342;2023-04-15T12:13:45;57.88;;;32.90;;
75459;SDS011;64039;53.060;9.342;2023-04-15T12:16:12;46.53;;;26.38;;
75459;SDS011;64039;53.060;9.342;2023-04-15T12:18:40;45.95;;;24.70;;
75459;SDS011;64039;53.060;9.342;2023-04-15T12:21:09;48.72;;;25.02;;
75459;SDS011;64039;53.060;9.342;2023-04-15T12:23:36;43.30;;;24.65;;
75459;SDS011;64039;53.060;9.342;2023-04-15T12:26:05;47.33;;;25.60;;
75459;SDS011;64039;53.060;9.342;2023-04-15T12:28:33;44.85;;;24.40;;
75459;SDS011;64039;53.060;9.342;2023-04-15T12:31:05;46.65;;;24.80;;
75459;SDS011;64039;53.060;9.342;2023-04-15T12:33:32;47.75;;;26.15;;
75459;SDS011;64039;53.060;9.342;2023-04-15T12:35:58;46.38;;;25.08;;
75459;SDS011;64039;53.060;9.342;2023-04-15T12:38:23;44.63;;;25.98;;
75459;SDS011;64039;53.060;9.342;2023-04-15T12:40:48;42.28;;;24.08;;
75459;SDS011;64039;53.060;9.342;2023-04-15T12:43:14;43.08;;;24.33;;
75459;SDS011;64039;53.060;9.342;2023-04-15T12:45:39;43.63;;;23.90;;
75459;SDS011;64039;53.060;9.342;2023-04-15T12:48:05;44.70;;;23.55;;
75459;SDS011;64039;53.060;9.342;2023-04-15T12:50:32;42.80;;;23.23;;
75459;SDS011;64039;53.060;9.342;2023-04-15T12:52:57;41.28;;;24.25;;
75459;SDS011;64039;53.060;9.342;2023-04-15T12:55:23;38.65;;;22.83;;
75459;SDS011;64039;53.060;9.342;2023-04-15T12:57:48;38.30;;;22.77;;
75459;SDS011;64039;53.060;9.342;2023-04-15T13:00:14;40.28;;;23.42;;
75459;SDS011;64039;53.060;9.342;2023-04-15T13:02:39;37.67;;;22.75;;
75459;SDS011;64039;53.060;9.342;2023-04-15T13:05:07;37.75;;;23.27;;
75459;SDS011;64039;53.060;9.342;2023-04-15T13:07:32;35.65;;;21.23;;
75459;SDS011;64039;53.060;9.342;2023-04-15T13:09:58;39.78;;;23.27;;
75459;SDS011;64039;53.060;9.342;2023-04-15T13:12:23;36.40;;;22.15;;
75459;SDS011;64039;53.060;9.342;2023-04-15T13:14:49;35.30;;;23.20;;
75459;SDS011;64039;53.060;9.342;2023-04-15T13:17:15;47.83;;;28.90;;
75459;SDS011;64039;53.060;9.342;2023-04-15T13:19:42;36.58;;;22.38;;
75459;SDS011;64039;53.060;9.342;2023-04-15T13:22:08;50.33;;;30.80;;
75459;SDS011;64039;53.060;9.342;2023-04-15T13:24:34;35.08;;;22.83;;
75459;SDS011;64039;53.060;9.342;2023-04-15T13:26:59;36.97;;;22.40;;
75459;SDS011;64039;53.060;9.342;2023-04-15T13:29:24;38.45;;;22.05;;
75459;SDS011;64039;53.060;9.342;2023-04-15T13:31:50;38.78;;;22.40;;
75459;SDS011;64039;53.060;9.342;2023-04-15T13:34:15;34.65;;;21.10;;
75459;SDS011;64039;53.060;9.342;2023-04-15T13:36:41;30.58;;;19.65;;
75459;SDS011;64039;53.060;9.342;2023-04-15T13:39:06;37.00;;;23.02;;
75459;SDS011;64039;53.060;9.342;2023-04-15T13:41:32;35.05;;;21.23;;
75459;SDS011;64039;53.060;9.342;2023-04-15T13:43:57;34.40;;;20.48;;
75459;SDS011;64039;53.060;9.342;2023-04-15T13:46:23;32.63;;;20.70;;
75459;SDS011;64039;53.060;9.342;2023-04-15T13:48:50;34.20;;;20.90;;
75459;SDS011;64039;53.060;9.342;2023-04-15T13:51:15;32.92;;;20.88;;
75459;SDS011;64039;53.060;9.342;2023-04-15T13:53:41;31.75;;;19.38;;
75459;SDS011;64039;53.060;9.342;2023-04-15T13:56:06;30.67;;;20.38;;
75459;SDS011;64039;53.060;9.342;2023-04-15T13:58:32;35.47;;;21.23;;
75459;SDS011;64039;53.060;9.342;2023-04-15T14:00:58;35.92;;;20.95;;
75459;SDS011;64039;53.060;9.342;2023-04-15T14:03:23;33.80;;;21.65;;
75459;SDS011;64039;53.060;9.342;2023-04-15T14:05:48;35.90;;;21.48;;
75459;SDS011;64039;53.060;9.342;2023-04-15T14:08:20;33.75;;;20.50;;
75459;SDS011;64039;53.060;9.342;2023-04-15T14:10:46;33.33;;;20.73;;
75459;SDS011;64039;53.060;9.342;2023-04-15T14:13:13;31.40;;;19.85;;
75459;SDS011;64039;53.060;9.342;2023-04-15T14:15:39;31.50;;;19.55;;
75459;SDS011;64039;53.060;9.342;2023-04-15T14:18:05;33.78;;;20.05;;
75459;SDS011;64039;53.060;9.342;2023-04-15T14:20:31;29.33;;;19.10;;
75459;SDS011;64039;53.060;9.342;2023-04-15T14:22:57;28.17;;;18.38;;
75459;SDS011;64039;53.060;9.342;2023-04-15T14:25:22;28.60;;;18.13;;
75459;SDS011;64039;53.060;9.342;2023-04-15T14:27:48;25.50;;;17.38;;
75459;SDS011;64039;53.060;9.342;2023-04-15T14:30:14;29.63;;;18.55;;
75459;SDS011;64039;53.060;9.342;2023-04-15T14:32:39;28.17;;;18.38;;
75459;SDS011;64039;53.060;9.342;2023-04-15T14:35:05;25.73;;;16.95;;
75459;SDS011;64039;53.060;9.342;2023-04-15T14:37:31;26.50;;;16.15;;
75459;SDS011;64039;53.060;9.342;2023-04-15T14:39:56;24.23;;;15.55;;
75459;SDS011;64039;53.060;9.342;2023-04-15T14:42:22;22.70;;;15.05;;
75459;SDS011;64039;53.060;9.342;2023-04-15T14:44:47;25.30;;;15.32;;